Time;durP1;ratioP1;P1;durP2;ratioP2;P2;SDS_P1;SDS_P2;PMS_P1;PMS_P2;Temp;Humidity;BMP_temperature;BMP_pressure;BME280_temperature;BME280_humidity;BME280_pressure;Samples;Min_cycle;Max_cycle;Signal;HPM_P1;HPM_P2
2023/07/03 00:01:08;;;;;;;13.73;3.28;;;16.00;99.90;;;;;;5078919;28;20098;-72
2023/07/03 00:03:34;;;;;;;10.07;3.40;;;16.00;99.90;;;;;;5011188;28;20049;-72
2023/07/03 00:06:01;;;;;;;11.48;3.45;;;15.90;99.90;;;;;;5078980;28;20041;-72
2023/07/03 00:08:26;;;;;;;14.32;4.03;;;15.90;99.90;;;;;;5010451;28;20482;-72
2023/07/03 00:10:59;;;;;;;12.80;3.38;;;15.90;99.90;;;;;;5078959;28;20049;-72
2023/07/03 00:13:25;;;;;;;12.93;3.22;;;15.90;99.90;;;;;;5079024;28;20058;-72
2023/07/03 00:15:57;;;;;;;11.00;3.60;;;15.90;99.90;;;;;;5078879;28;20049;-72
2023/07/03 00:18:23;;;;;;;13.30;3.87;;;15.90;99.90;;;;;;5078849;28;20118;-71
2023/07/03 00:20:54;;;;;;;10.68;3.30;;;15.90;99.90;;;;;;5012365;28;20317;-72
2023/07/03 00:23:23;;;;;;;10.35;2.95;;;15.90;99.90;;;;;;5078654;28;20057;-72
2023/07/03 00:25:50;;;;;;;9.27;3.47;;;15.90;99.90;;;;;;5078815;28;20042;-72
2023/07/03 00:28:16;;;;;;;9.57;2.92;;;15.90;99.90;;;;;;5078908;28;20509;-72
2023/07/03 00:30:43;;;;;;;11.27;3.20;;;15.90;99.90;;;;;;5078971;28;20125;-71
2023/07/03 00:33:09;;;;;;;13.50;4.43;;;15.90;99.90;;;;;;5078846;28;20409;-71
2023/07/03 00:35:35;;;;;;;11.57;3.25;;;15.90;99.90;;;;;;5078670;28;20045;-71
2023/07/03 00:38:00;;;;;;;11.35;3.42;;;15.90;99.90;;;;;;5078613;28;20057;-71
2023/07/03 00:40:26;;;;;;;11.75;3.03;;;15.90;99.90;;;;;;5010868;28;20077;-72
2023/07/03 00:42:52;;;;;;;10.48;3.13;;;15.90;99.90;;;;;;5010799;28;20125;-71
2023/07/03 00:45:19;;;;;;;11.38;3.40;;;15.90;99.90;;;;;;5010627;28;20513;-72
2023/07/03 00:47:45;;;;;;;13.68;3.05;;;15.90;99.90;;;;;;5010908;28;20144;-72
2023/07/03 00:50:11;;;;;;;11.60;3.00;;;16.00;99.90;;;;;;5010720;28;20574;-72
2023/07/03 00:52:39;;;;;;;13.85;3.45;;;15.90;99.90;;;;;;5078248;28;20189;-72
2023/07/03 00:55:06;;;;;;;12.75;3.10;;;16.00;99.90;;;;;;5010732;28;20382;-72
2023/07/03 00:57:31;;;;;;;11.75;2.88;;;15.90;99.90;;;;;;5078216;28;20540;-72
2023/07/03 00:59:59;;;;;;;14.48;3.17;;;15.90;99.90;;;;;;5010511;28;20090;-72
2023/07/03 01:02:34;;;;;;;8.82;2.75;;;16.00;99.90;;;;;;5078346;28;20038;-72
2023/07/03 01:05:21;;;;;;;11.05;3.00;;;15.90;99.90;;;;;;5010762;28;20046;-72
2023/07/03 01:07:48;;;;;;;9.68;2.70;;;15.90;99.90;;;;;;5010392;28;20046;-72
2023/07/03 01:10:19;;;;;;;9.88;2.40;;;15.90;99.90;;;;;;5010639;28;20048;-72
2023/07/03 01:12:48;;;;;;;11.52;2.78;;;15.90;99.90;;;;;;5078221;28;20099;-72
2023/07/03 01:15:19;;;;;;;11.18;2.70;;;15.90;99.90;;;;;;5010336;28;20423;-72
2023/07/03 01:17:47;;;;;;;17.02;3.00;;;16.00;99.90;;;;;;5078198;28;20103;-72
2023/07/03 01:20:17;;;;;;;8.43;2.47;;;15.90;99.90;;;;;;5013671;28;20060;-72
2023/07/03 01:23:01;;;;;;;8.98;2.60;;;15.90;99.90;;;;;;5081951;28;20046;-72
2023/07/03 01:25:27;;;;;;;14.95;2.70;;;15.80;99.90;;;;;;5082131;28;20046;-72
2023/07/03 01:27:55;;;;;;;10.23;2.30;;;15.80;99.90;;;;;;5013443;28;20082;-72
2023/07/03 01:30:22;;;;;;;9.25;2.10;;;15.80;99.90;;;;;;5082040;28;20042;-72
2023/07/03 01:32:51;;;;;;;11.82;2.28;;;15.80;99.90;;;;;;5013641;28;20124;-72
2023/07/03 01:35:18;;;;;;;9.20;2.15;;;15.80;99.90;;;;;;5081712;28;20106;-72
2023/07/03 01:37:49;;;;;;;12.85;2.65;;;15.80;99.90;;;;;;5081566;28;20436;-72
2023/07/03 01:40:18;;;;;;;7.97;1.95;;;15.70;99.90;;;;;;5081776;28;20106;-71
2023/07/03 01:42:45;;;;;;;8.55;1.92;;;15.70;99.90;;;;;;5081882;28;20065;-72
2023/07/03 01:45:11;;;;;;;8.90;2.50;;;15.60;99.90;;;;;;5081877;28;20054;-72
2023/07/03 01:47:37;;;;;;;7.68;2.00;;;15.60;99.90;;;;;;5013330;28;20050;-72
2023/07/03 01:50:12;;;;;;;10.48;2.45;;;15.50;99.90;;;;;;5081323;28;20049;-72
2023/07/03 01:52:40;;;;;;;13.15;2.15;;;15.50;99.90;;;;;;5081306;28;20057;-72
2023/07/03 01:55:29;;;;;;;7.47;2.03;;;15.50;99.90;;;;;;5013280;28;20102;-72
2023/07/03 01:58:21;;;;;;;11.20;2.20;;;15.50;99.90;;;;;;5082302;28;20089;-72
2023/07/03 02:00:52;;;;;;;10.82;1.98;;;15.50;99.90;;;;;;5081054;28;20042;-72
2023/07/03 02:03:20;;;;;;;11.73;2.00;;;15.40;99.90;;;;;;5013156;28;20046;-72
2023/07/03 02:05:48;;;;;;;10.43;2.13;;;15.40;99.90;;;;;;5081112;28;20527;-72
2023/07/03 02:08:15;;;;;;;9.55;2.25;;;15.30;99.90;;;;;;5080951;28;20485;-72
2023/07/03 02:10:41;;;;;;;11.85;2.10;;;15.30;99.90;;;;;;5081194;28;20505;-72
2023/07/03 02:13:07;;;;;;;13.68;2.65;;;15.30;99.90;;;;;;5013039;28;20086;-72
2023/07/03 02:15:32;;;;;;;11.60;2.13;;;15.20;99.90;;;;;;5080950;28;20068;-72
2023/07/03 02:17:58;;;;;;;13.75;2.90;;;15.20;99.90;;;;;;5080924;28;20045;-73
2023/07/03 02:20:24;;;;;;;10.10;2.08;;;15.10;99.90;;;;;;5012977;28;20125;-72
2023/07/03 02:22:49;;;;;;;9.18;2.50;;;15.10;99.90;;;;;;5012936;28;20048;-72
2023/07/03 02:25:16;;;;;;;11.85;2.08;;;15.10;99.90;;;;;;5080613;28;20081;-72
2023/07/03 02:27:43;;;;;;;11.13;1.95;;;15.00;99.90;;;;;;5012589;28;20481;-72
2023/07/03 02:30:09;;;;;;;8.65;2.03;;;15.00;99.90;;;;;;5079947;28;20086;-72
2023/07/03 02:32:36;;;;;;;13.93;2.60;;;14.90;99.90;;;;;;5080882;28;20504;-72
2023/07/03 02:35:03;;;;;;;9.32;2.10;;;14.90;99.90;;;;;;5080798;28;20054;-72
2023/07/03 02:37:29;;;;;;;11.18;2.42;;;14.90;99.90;;;;;;5080364;28;20516;-72
2023/07/03 02:39:55;;;;;;;8.82;2.03;;;14.80;99.90;;;;;;5080711;28;20050;-72
2023/07/03 02:42:21;;;;;;;13.30;2.58;;;14.80;99.90;;;;;;5080366;28;20049;-72
2023/07/03 02:44:46;;;;;;;13.68;2.30;;;14.70;99.90;;;;;;5012804;28;20046;-72
2023/07/03 02:47:12;;;;;;;13.93;2.78;;;14.70;99.90;;;;;;5080281;28;20053;-72
2023/07/03 02:49:38;;;;;;;8.32;2.42;;;14.70;99.90;;;;;;5012399;28;20034;-72
2023/07/03 02:52:04;;;;;;;16.15;2.75;;;14.60;99.90;;;;;;5080212;28;20103;-72
2023/07/03 02:54:29;;;;;;;12.02;2.63;;;14.60;99.90;;;;;;5012421;28;20073;-72
2023/07/03 02:56:55;;;;;;;8.80;2.13;;;14.50;99.90;;;;;;5079909;28;20424;-72
2023/07/03 02:59:21;;;;;;;10.85;3.20;;;14.50;99.90;;;;;;5080078;28;20049;-72
2023/07/03 03:01:47;;;;;;;13.48;2.67;;;14.50;99.90;;;;;;5080508;28;20099;-72
2023/07/03 03:04:16;;;;;;;9.77;2.45;;;14.50;99.90;;;;;;5079764;28;20046;-72
2023/07/03 03:06:42;;;;;;;10.23;2.25;;;14.40;99.90;;;;;;5079866;28;20049;-72
2023/07/03 03:09:09;;;;;;;9.13;2.47;;;14.40;99.90;;;;;;5079456;28;20046;-72
2023/07/03 03:11:35;;;;;;;13.45;3.25;;;14.30;99.90;;;;;;5079548;28;20486;-72
2023/07/03 03:14:01;;;;;;;12.25;2.90;;;14.30;99.90;;;;;;5010525;28;20495;-72
2023/07/03 03:16:27;;;;;;;10.02;2.47;;;14.20;99.90;;;;;;5079032;28;20042;-72
2023/07/03 03:18:53;;;;;;;9.90;2.70;;;14.20;99.90;;;;;;5011845;28;20065;-72
2023/07/03 03:21:18;;;;;;;14.45;2.70;;;14.20;99.90;;;;;;5079737;28;20493;-72
2023/07/03 03:23:45;;;;;;;18.17;2.85;;;14.10;99.90;;;;;;5011936;28;20042;-72
2023/07/03 03:26:10;;;;;;;10.13;2.63;;;14.20;99.90;;;;;;5011779;28;20042;-72
2023/07/03 03:28:36;;;;;;;11.88;2.50;;;14.10;99.90;;;;;;5011863;28;20062;-72
2023/07/03 03:31:01;;;;;;;13.88;3.22;;;14.10;99.90;;;;;;5079283;28;20052;-72
2023/07/03 03:33:27;;;;;;;10.30;2.20;;;14.10;99.90;;;;;;5079348;28;20046;-72
2023/07/03 03:35:53;;;;;;;12.10;2.72;;;14.10;99.90;;;;;;5079437;28;20082;-72
2023/07/03 03:38:18;;;;;;;10.60;2.95;;;14.10;99.90;;;;;;5079397;28;20140;-72
2023/07/03 03:40:54;;;;;;;12.70;3.03;;;14.00;99.90;;;;;;5079063;28;20034;-72
2023/07/03 03:43:20;;;;;;;10.15;2.72;;;14.00;99.90;;;;;;5078317;28;20050;-72
2023/07/03 03:45:56;;;;;;;12.43;2.63;;;14.00;99.90;;;;;;5079318;28;20056;-72
2023/07/03 03:48:22;;;;;;;8.23;2.33;;;14.00;99.90;;;;;;5079333;28;20050;-72
2023/07/03 03:50:48;;;;;;;10.40;2.55;;;14.00;99.90;;;;;;5011452;28;20091;-72
2023/07/03 03:53:14;;;;;;;13.27;2.45;;;14.00;99.90;;;;;;5011446;28;20045;-72
2023/07/03 03:55:39;;;;;;;11.75;2.25;;;14.00;99.90;;;;;;5078891;28;20050;-73
2023/07/03 03:58:05;;;;;;;14.55;3.25;;;14.00;99.90;;;;;;5011129;28;20076;-72
2023/07/03 04:00:31;;;;;;;13.27;3.45;;;14.00;99.90;;;;;;5011010;28;20054;-72
2023/07/03 04:02:57;;;;;;;10.77;2.63;;;14.00;99.90;;;;;;5078818;28;20053;-72
2023/07/03 04:05:22;;;;;;;16.05;2.70;;;14.00;99.90;;;;;;5010936;28;20053;-72
2023/07/03 04:07:48;;;;;;;13.07;2.70;;;14.00;99.90;;;;;;5010981;28;20485;-72
2023/07/03 04:10:13;;;;;;;10.27;2.70;;;14.00;99.90;;;;;;5078863;28;20090;-72
2023/07/03 04:12:39;;;;;;;10.70;2.75;;;14.10;99.90;;;;;;5078583;28;20053;-72
2023/07/03 04:15:05;;;;;;;10.13;2.38;;;14.20;99.90;;;;;;5011092;28;20054;-72
2023/07/03 04:17:31;;;;;;;12.45;2.63;;;14.30;99.90;;;;;;5079015;28;20050;-72
2023/07/03 04:19:57;;;;;;;13.43;2.38;;;14.50;99.90;;;;;;5011206;28;20046;-72
2023/07/03 04:22:22;;;;;;;8.00;2.15;;;14.50;99.90;;;;;;5078532;28;20098;-72
2023/07/03 04:24:48;;;;;;;14.15;2.42;;;14.50;99.90;;;;;;5078532;28;20053;-72
2023/07/03 04:27:14;;;;;;;11.07;2.72;;;14.50;99.90;;;;;;5078762;28;20038;-72
2023/07/03 04:29:41;;;;;;;13.43;3.20;;;14.60;99.90;;;;;;5078820;28;20050;-72
2023/07/03 04:32:07;;;;;;;13.75;2.80;;;14.70;99.90;;;;;;5078662;28;20057;-72
2023/07/03 04:34:32;;;;;;;9.75;2.42;;;14.80;99.90;;;;;;5010868;28;20037;-72
2023/07/03 04:36:58;;;;;;;13.75;2.55;;;14.80;99.90;;;;;;5010903;28;20049;-72
2023/07/03 04:39:24;;;;;;;16.95;3.38;;;14.90;99.90;;;;;;5078352;28;20041;-72
2023/07/03 04:41:50;;;;;;;11.50;2.42;;;14.90;99.90;;;;;;5078504;28;20104;-72
2023/07/03 04:44:15;;;;;;;15.70;3.15;;;15.00;99.90;;;;;;5078271;28;20046;-72
2023/07/03 04:46:43;;;;;;;10.50;1.98;;;15.00;99.90;;;;;;5078197;28;20046;-72
2023/07/03 04:49:10;;;;;;;10.85;2.15;;;15.10;99.90;;;;;;5078559;28;20501;-72
2023/07/03 04:51:36;;;;;;;14.73;2.40;;;15.20;99.90;;;;;;5078309;28;20053;-72
2023/07/03 04:54:03;;;;;;;10.75;2.35;;;15.30;99.90;;;;;;5080320;28;20053;-72
2023/07/03 04:56:32;;;;;;;12.60;2.55;;;15.50;99.90;;;;;;5014119;28;20062;-72
2023/07/03 04:58:57;;;;;;;11.18;2.40;;;15.60;99.90;;;;;;5082318;28;20053;-72
2023/07/03 05:01:24;;;;;;;12.65;2.33;;;15.70;99.90;;;;;;5082052;28;20046;-72
2023/07/03 05:03:50;;;;;;;12.27;2.60;;;15.80;99.90;;;;;;5082115;28;20054;-72
2023/07/03 05:06:15;;;;;;;15.00;3.17;;;16.00;99.90;;;;;;5033585;28;20041;-72
2023/07/03 05:08:41;;;;;;;15.05;2.35;;;15.90;99.90;;;;;;5033770;28;20132;-72
2023/07/03 05:11:07;;;;;;;11.77;2.45;;;15.80;99.90;;;;;;5102483;28;20252;-72
2023/07/03 05:13:32;;;;;;;10.57;2.58;;;15.90;99.90;;;;;;5102220;28;20056;-72
2023/07/03 05:15:58;;;;;;;11.63;2.20;;;15.90;99.90;;;;;;5102391;28;20037;-72
2023/07/03 05:18:24;;;;;;;9.85;2.35;;;15.90;99.90;;;;;;5102374;28;20433;-72
2023/07/03 05:20:50;;;;;;;9.27;2.60;;;15.90;99.90;;;;;;5102349;28;20046;-72
2023/07/03 05:23:17;;;;;;;8.20;1.95;;;15.90;99.90;;;;;;5102002;28;20046;-72
2023/07/03 05:25:44;;;;;;;12.18;1.90;;;16.00;99.90;;;;;;5102339;28;20124;-72
2023/07/03 05:28:10;;;;;;;12.75;2.05;;;16.20;99.90;;;;;;5101592;28;20060;-72
2023/07/03 05:30:36;;;;;;;8.93;2.08;;;16.40;99.90;;;;;;5101908;28;20056;-72
2023/07/03 05:33:01;;;;;;;12.38;1.95;;;16.30;99.90;;;;;;5102041;28;20049;-72
2023/07/03 05:35:27;;;;;;;6.03;1.67;;;16.30;99.90;;;;;;5033015;28;20037;-72
2023/07/03 05:37:53;;;;;;;8.30;1.92;;;16.30;99.90;;;;;;5101703;28;20045;-72
2023/07/03 05:40:18;;;;;;;9.82;2.40;;;16.40;99.90;;;;;;5102041;28;20045;-71
2023/07/03 05:42:44;;;;;;;6.50;1.50;;;16.30;99.90;;;;;;5101712;28;20045;-72
2023/07/03 05:45:10;;;;;;;7.53;1.65;;;16.20;99.90;;;;;;5101717;28;20081;-72
2023/07/03 05:47:36;;;;;;;9.23;1.70;;;16.10;99.90;;;;;;5033024;28;20041;-72
2023/07/03 05:50:02;;;;;;;9.80;1.85;;;16.10;99.90;;;;;;5033262;28;20557;-72
2023/07/03 05:52:28;;;;;;;10.60;1.92;;;16.20;99.90;;;;;;5101742;28;20080;-72
2023/07/03 05:54:54;;;;;;;9.57;1.80;;;16.30;99.90;;;;;;5101425;28;20433;-72
2023/07/03 05:57:20;;;;;;;10.70;2.60;;;16.40;99.90;;;;;;5101130;28;20057;-72
2023/07/03 05:59:48;;;;;;;9.60;1.98;;;16.40;99.90;;;;;;5101521;28;20105;-72
2023/07/03 06:02:14;;;;;;;9.20;1.70;;;16.50;99.90;;;;;;5101689;28;20085;-72
2023/07/03 06:04:40;;;;;;;11.40;2.00;;;16.50;99.90;;;;;;5100923;28;20045;-72
2023/07/03 06:07:07;;;;;;;13.13;2.13;;;16.60;99.90;;;;;;5099672;28;20056;-72
2023/07/03 06:09:33;;;;;;;10.60;1.98;;;16.70;99.90;;;;;;5091838;28;20046;-71
2023/07/03 06:12:00;;;;;;;11.93;1.98;;;16.80;99.90;;;;;;5081064;28;20125;-72
2023/07/03 06:14:25;;;;;;;9.25;2.00;;;16.90;99.90;;;;;;5080576;28;20090;-71
2023/07/03 06:16:52;;;;;;;10.07;1.80;;;17.10;99.90;;;;;;5080889;28;20046;-72
2023/07/03 06:19:19;;;;;;;7.93;1.95;;;17.00;99.90;;;;;;5012660;28;20034;-72
2023/07/03 06:21:45;;;;;;;8.60;1.45;;;17.00;99.90;;;;;;5080907;28;20089;-72
2023/07/03 06:24:12;;;;;;;11.95;2.28;;;17.00;99.90;;;;;;5080725;28;20057;-72
2023/07/03 06:26:39;;;;;;;10.68;1.70;;;17.10;99.90;;;;;;5080501;28;20046;-72
2023/07/03 06:29:09;;;;;;;8.60;1.42;;;17.40;99.90;;;;;;5080357;28;20505;-72
2023/07/03 06:31:35;;;;;;;11.57;2.35;;;17.60;99.90;;;;;;5080301;28;20527;-71
2023/07/03 06:34:02;;;;;;;7.18;1.35;;;17.80;99.90;;;;;;5080248;28;20525;-71
2023/07/03 06:36:28;;;;;;;10.77;1.52;;;18.00;99.90;;;;;;5080596;28;20067;-72
2023/07/03 06:38:55;;;;;;;9.50;1.77;;;18.00;99.90;;;;;;5080329;28;20164;-72
2023/07/03 06:41:23;;;;;;;9.20;2.00;;;17.90;99.90;;;;;;5012335;28;20057;-72
2023/07/03 06:43:51;;;;;;;8.70;1.48;;;17.90;99.90;;;;;;5080486;28;20115;-71
2023/07/03 06:46:17;;;;;;;9.68;1.60;;;18.00;99.90;;;;;;5080100;28;20081;-73
2023/07/03 06:48:43;;;;;;;5.90;1.45;;;18.10;99.90;;;;;;5080176;28;20127;-71
2023/07/03 06:51:11;;;;;;;10.48;1.75;;;18.10;99.90;;;;;;5012024;28;20042;-71
2023/07/03 06:53:37;;;;;;;6.05;1.50;;;18.30;99.90;;;;;;5079880;28;20416;-79
2023/07/03 06:56:06;;;;;;;7.20;1.13;;;18.40;99.90;;;;;;5079802;28;20068;-71
2023/07/03 06:58:32;;;;;;;10.13;1.73;;;18.40;99.90;;;;;;5012206;28;20067;-75
2023/07/03 07:01:04;;;;;;;7.57;1.73;;;18.40;99.90;;;;;;5079922;28;20042;-72
2023/07/03 07:03:29;;;;;;;8.90;1.83;;;18.30;99.90;;;;;;5079808;28;20046;-72
2023/07/03 07:05:55;;;;;;;8.90;1.70;;;18.20;99.90;;;;;;5079472;28;20050;-72
2023/07/03 07:08:20;;;;;;;9.27;1.55;;;18.00;99.90;;;;;;5012072;28;20050;-72
2023/07/03 07:10:46;;;;;;;8.65;1.85;;;18.10;99.90;;;;;;5011787;28;20054;-73
2023/07/03 07:13:13;;;;;;;11.43;1.55;;;17.90;99.90;;;;;;5079568;28;20046;-73
2023/07/03 07:15:40;;;;;;;8.57;1.52;;;18.10;99.90;;;;;;5079535;28;20099;-73
2023/07/03 07:18:08;;;;;;;8.25;1.83;;;18.30;99.90;;;;;;5079735;28;20054;-73
2023/07/03 07:20:37;;;;;;;8.05;1.65;;;18.20;99.90;;;;;;5011883;28;20081;-74
2023/07/03 07:23:03;;;;;;;8.23;1.88;;;18.30;99.90;;;;;;5011713;28;20049;-72
2023/07/03 07:25:29;;;;;;;9.15;1.40;;;18.40;99.90;;;;;;5079526;28;20090;-72
2023/07/03 07:27:54;;;;;;;5.72;1.42;;;18.50;99.90;;;;;;5078979;28;20054;-72
2023/07/03 07:30:20;;;;;;;8.45;2.10;;;18.60;99.90;;;;;;5011441;28;20053;-72
2023/07/03 07:32:52;;;;;;;10.95;1.77;;;18.50;99.90;;;;;;5079358;28;20437;-71
2023/07/03 07:35:18;;;;;;;6.20;1.50;;;18.50;99.90;;;;;;5011389;28;20090;-72
2023/07/03 07:37:44;;;;;;;7.32;1.88;;;18.50;99.90;;;;;;5079155;28;20432;-74
2023/07/03 07:40:11;;;;;;;8.85;1.98;;;18.60;99.90;;;;;;5079250;28;20512;-72
2023/07/03 07:42:37;;;;;;;8.30;1.65;;;18.70;99.90;;;;;;5079287;28;20066;-73
2023/07/03 07:45:04;;;;;;;8.48;1.70;;;18.90;99.90;;;;;;5078799;28;20087;-74
2023/07/03 07:47:30;;;;;;;7.22;1.27;;;19.10;99.90;;;;;;5011133;28;20046;-73
2023/07/03 07:49:58;;;;;;;7.63;1.30;;;19.20;99.90;;;;;;5011074;28;20466;-73
2023/07/03 07:52:24;;;;;;;7.40;1.33;;;19.30;99.90;;;;;;5079030;28;20049;-73
2023/07/03 07:54:57;;;;;;;8.27;1.35;;;19.30;99.90;;;;;;5011259;28;20081;-73
2023/07/03 07:57:23;;;;;;;6.32;1.30;;;19.00;99.90;;;;;;5078527;28;20836;-73
2023/07/03 07:59:49;;;;;;;5.60;1.20;;;18.70;99.90;;;;;;5011194;28;20053;-73
2023/07/03 08:02:15;;;;;;;9.05;1.50;;;18.60;99.90;;;;;;5011301;28;20107;-73
2023/07/03 08:04:44;;;;;;;7.70;1.55;;;18.40;99.90;;;;;;5078642;28;20044;-73
2023/07/03 08:07:11;;;;;;;9.48;1.65;;;18.60;99.90;;;;;;5078512;28;20094;-73
2023/07/03 08:09:38;;;;;;;9.18;1.35;;;18.60;99.90;;;;;;5078730;28;20057;-73
2023/07/03 08:12:05;;;;;;;9.25;1.73;;;18.40;99.90;;;;;;5011117;28;20042;-75
2023/07/03 08:14:31;;;;;;;10.88;1.42;;;18.40;99.90;;;;;;5010955;28;20042;-73
2023/07/03 08:16:56;;;;;;;8.30;1.60;;;18.20;99.90;;;;;;5078780;28;20105;-72
2023/07/03 08:19:22;;;;;;;6.32;1.33;;;18.10;99.90;;;;;;5078699;28;20046;-73
2023/07/03 08:21:48;;;;;;;8.13;1.40;;;18.00;99.90;;;;;;5010725;28;20038;-73
2023/07/03 08:24:13;;;;;;;4.85;1.20;;;18.40;99.90;;;;;;5078314;28;20049;-73
2023/07/03 08:26:41;;;;;;;8.98;1.48;;;18.90;99.90;;;;;;5078581;28;20034;-75
2023/07/03 08:29:07;;;;;;;6.82;1.50;;;19.10;99.90;;;;;;5077976;28;20061;-74
2023/07/03 08:31:33;;;;;;;8.32;1.25;;;19.20;99.90;;;;;;5078337;28;20049;-73
2023/07/03 08:33:58;;;;;;;9.07;1.60;;;19.20;99.90;;;;;;5078248;28;20181;-73
2023/07/03 08:36:24;;;;;;;6.20;1.33;;;19.30;99.90;;;;;;5078471;28;20544;-72
2023/07/03 08:38:50;;;;;;;8.85;2.22;;;19.00;99.90;;;;;;5010491;28;20484;-74
2023/07/03 08:41:16;;;;;;;9.23;2.25;;;19.10;99.90;;;;;;5010494;28;20061;-74
2023/07/03 08:43:53;;;;;;;6.47;1.30;;;19.20;99.90;;;;;;5077806;28;20120;-74
2023/07/03 08:46:23;;;;;;;5.03;1.20;;;19.30;99.90;;;;;;5089371;28;20038;-73
2023/07/03 08:48:52;;;;;;;4.15;1.50;;;19.30;99.90;;;;;;5078370;28;20046;-72
2023/07/03 08:51:22;;;;;;;8.48;1.45;;;19.40;99.90;;;;;;5078062;28;20041;-73
2023/07/03 08:53:59;;;;;;;7.75;1.40;;;19.50;99.90;;;;;;5078351;28;20054;-73
2023/07/03 08:56:30;;;;;;;6.55;1.15;;;19.70;99.90;;;;;;5077824;28;20069;-73
2023/07/03 08:58:56;;;;;;;6.95;1.20;;;19.90;99.90;;;;;;5077850;28;20455;-73
2023/07/03 09:02:11;;;;;;;5.75;2.00;;;20.20;99.90;;;;;;5078052;28;20045;-73
2023/07/03 09:04:45;;;;;;;8.20;1.60;;;20.30;99.90;;;;;;5060217;28;20073;-73
2023/07/03 09:07:38;;;;;;;5.50;1.20;;;20.30;99.90;;;;;;5077546;28;20401;-73
2023/07/03 09:10:23;;;;;;;4.97;1.60;;;20.30;99.90;;;;;;5078431;28;20046;-73
2023/07/03 09:12:54;;;;;;;5.05;1.45;;;20.20;99.90;;;;;;5078117;28;20057;-73
2023/07/03 09:15:48;;;;;;;7.40;1.42;;;20.10;99.90;;;;;;5078201;28;20519;-73
2023/07/03 09:18:18;;;;;;;5.82;1.92;;;20.10;99.90;;;;;;5078296;28;20124;-73
2023/07/03 09:20:44;;;;;;;6.15;1.55;;;20.00;99.90;;;;;;5078027;28;20128;-72
2023/07/03 09:23:26;;;;;;;6.47;1.27;;;19.90;99.90;;;;;;5078268;28;20196;-73
2023/07/03 09:26:03;;;;;;;9.48;1.50;;;19.80;99.90;;;;;;5078094;28;20045;-73
2023/07/03 09:28:29;;;;;;;9.88;1.40;;;19.90;99.90;;;;;;5010530;28;20046;-72
2023/07/03 09:30:55;;;;;;;7.60;1.38;;;19.90;99.90;;;;;;5010349;28;20046;-75
2023/07/03 09:33:21;;;;;;;4.20;1.02;;;19.80;99.90;;;;;;5019006;28;20058;-73
2023/07/03 09:35:47;;;;;;;5.10;1.42;;;19.90;99.90;;;;;;5079237;28;20045;-74
2023/07/03 09:38:23;;;;;;;9.93;1.55;;;19.90;99.90;;;;;;5077512;28;20129;-73
2023/07/03 09:40:52;;;;;;;4.60;1.10;;;19.90;99.90;;;;;;5078854;28;20058;-73
2023/07/03 09:43:25;;;;;;;6.85;1.58;;;19.70;99.90;;;;;;5013137;28;20050;-73
2023/07/03 09:46:01;;;;;;;;;;;19.50;99.90;;;;;;5014002;28;20042;-73
2023/07/03 09:48:29;;;;;;;7.47;1.20;;;19.80;99.90;;;;;;5081451;28;19991;-73
2023/07/03 09:50:56;;;;;;;7.10;1.10;;;19.90;99.90;;;;;;5081483;28;20098;-73
2023/07/03 09:53:26;;;;;;;5.72;1.50;;;20.00;99.90;;;;;;5081160;28;20054;-73
2023/07/03 09:55:57;;;;;;;5.13;1.42;;;20.20;99.90;;;;;;5080891;28;20065;-74
2023/07/03 09:58:27;;;;;;;8.35;1.00;;;20.40;99.90;;;;;;5012940;28;20504;-74
2023/07/03 10:00:56;;;;;;;7.78;1.33;;;20.50;99.90;;;;;;5080791;28;20427;-74
2023/07/03 10:03:28;;;;;;;7.57;1.17;;;20.50;99.90;;;;;;5080801;28;20041;-74
2023/07/03 10:05:56;;;;;;;5.40;1.45;;;20.30;99.90;;;;;;5080975;28;20052;-74
2023/07/03 10:08:27;;;;;;;6.13;1.40;;;20.30;99.90;;;;;;5013206;28;20164;-74
2023/07/03 10:10:56;;;;;;;5.95;1.40;;;20.20;99.90;;;;;;5081110;28;20038;-74
2023/07/03 10:13:29;;;;;;;7.82;1.55;;;20.10;99.90;;;;;;5080924;28;20135;-73
2023/07/03 10:15:56;;;;;;;5.00;1.10;;;20.40;99.90;;;;;;5081308;28;20098;-74
2023/07/03 10:18:25;;;;;;;5.07;1.15;;;20.30;99.90;;;;;;5080963;28;20060;-74
2023/07/03 10:20:51;;;;;;;7.70;1.48;;;20.20;99.90;;;;;;5028026;28;20053;-74
2023/07/03 10:23:23;;;;;;;6.60;1.40;;;20.30;99.90;;;;;;5032794;28;20049;-74
2023/07/03 10:26:04;;;;;;;5.35;1.48;;;20.60;99.90;;;;;;5032614;28;20094;-74
2023/07/03 10:28:36;;;;;;;7.55;1.30;;;20.60;99.90;;;;;;5032660;28;20048;-72
2023/07/03 10:31:06;;;;;;;4.82;1.20;;;20.60;99.90;;;;;;5100877;28;20047;-73
2023/07/03 10:33:40;;;;;;;4.63;1.17;;;20.40;99.90;;;;;;5101167;28;20057;-73
2023/07/03 10:36:10;;;;;;;7.53;1.35;;;20.60;99.90;;;;;;5101099;28;20049;-73
2023/07/03 10:39:05;;;;;;;10.15;1.30;;;20.20;99.90;;;;;;5100670;28;20053;-73
2023/07/03 10:41:34;;;;;;;8.25;1.55;;;20.10;99.90;;;;;;5100784;28;20049;-73
2023/07/03 10:44:09;;;;;;;10.43;1.80;;;20.10;99.90;;;;;;5100817;28;20052;-73
2023/07/03 10:46:56;;;;;;;7.38;1.88;;;20.10;99.90;;;;;;5032056;28;20044;-73
2023/07/03 10:49:31;;;;;;;8.40;1.27;;;20.00;99.90;;;;;;5100706;28;20061;-73
2023/07/03 10:52:11;;;;;;;7.63;1.70;;;19.70;99.90;;;;;;5099918;28;20045;-73
2023/07/03 10:54:49;;;;;;;9.32;2.03;;;19.50;99.90;;;;;;5100335;28;20124;-73
2023/07/03 10:57:22;;;;;;;5.40;1.95;;;19.40;99.90;;;;;;5100104;28;20057;-73
2023/07/03 10:59:53;;;;;;;9.68;1.85;;;19.60;99.90;;;;;;5032196;28;20041;-72
2023/07/03 11:02:35;;;;;;;7.20;1.48;;;20.00;99.90;;;;;;5100754;28;20053;-72
2023/07/03 11:05:00;;;;;;;6.95;1.60;;;20.00;99.90;;;;;;5031920;28;20037;-72
2023/07/03 11:07:31;;;;;;;5.95;1.42;;;20.10;99.90;;;;;;5100040;28;20528;-73
2023/07/03 11:10:23;;;;;;;7.90;1.52;;;20.20;99.90;;;;;;5031819;28;20149;-72
2023/07/03 11:12:56;;;;;;;7.77;1.33;;;20.00;99.90;;;;;;5031927;28;20049;-73
2023/07/03 11:15:27;;;;;;;9.00;1.73;;;19.90;99.90;;;;;;5100234;28;20779;-73
2023/07/03 11:18:05;;;;;;;7.93;1.55;;;20.00;99.90;;;;;;5100277;28;20057;-73
2023/07/03 11:20:44;;;;;;;9.30;1.20;;;20.00;99.90;;;;;;5100167;28;20106;-72
2023/07/03 11:23:30;;;;;;;9.90;1.65;;;19.90;99.90;;;;;;5099848;28;20068;-72
2023/07/03 11:26:09;;;;;;;7.28;1.20;;;20.30;99.90;;;;;;5031757;28;20537;-73
2023/07/03 11:28:48;;;;;;;6.90;1.50;;;20.50;99.90;;;;;;5100221;28;20076;-73
2023/07/03 11:31:15;;;;;;;8.88;1.90;;;20.80;99.90;;;;;;5099660;28;20488;-73
2023/07/03 11:33:42;;;;;;;6.53;1.35;;;20.70;99.90;;;;;;5031193;28;20516;-73
2023/07/03 11:36:37;;;;;;;5.32;1.33;;;20.40;99.90;;;;;;5099525;28;20053;-72
2023/07/03 11:39:22;;;;;;;7.93;1.38;;;20.20;99.90;;;;;;5099679;28;20065;-72
2023/07/03 11:41:53;;;;;;;6.00;1.40;;;20.10;99.90;;;;;;5099752;28;20134;-73
2023/07/03 11:44:29;;;;;;;10.45;2.00;;;20.00;99.90;;;;;;5099359;28;20064;-72
2023/07/03 11:46:57;;;;;;;9.25;1.75;;;19.80;99.90;;;;;;5099541;28;20061;-73
2023/07/03 11:49:36;;;;;;;8.77;1.60;;;19.80;99.90;;;;;;5099333;28;20042;-73
2023/07/03 11:52:04;;;;;;;9.95;1.48;;;19.70;99.90;;;;;;5099637;28;20054;-73
2023/07/03 11:54:34;;;;;;;7.30;1.05;;;19.70;99.90;;;;;;5030998;28;20484;-73
2023/07/03 11:57:26;;;;;;;7.65;1.65;;;19.60;99.90;;;;;;5099066;28;20045;-73
2023/07/03 11:59:51;;;;;;;5.10;0.98;;;19.60;99.90;;;;;;5099031;28;20488;-73
2023/07/03 12:02:17;;;;;;;7.97;1.65;;;19.70;99.90;;;;;;5099036;28;20511;-73
2023/07/03 12:04:43;;;;;;;5.78;1.52;;;19.80;99.90;;;;;;5098404;28;20130;-73
2023/07/03 12:07:35;;;;;;;4.80;1.20;;;19.90;99.90;;;;;;5099217;28;20056;-73
2023/07/03 12:10:18;;;;;;;9.05;1.52;;;20.10;99.90;;;;;;5030733;28;20057;-73
2023/07/03 12:13:05;;;;;;;3.90;1.17;;;20.10;99.90;;;;;;5030987;28;20125;-73
2023/07/03 12:15:30;;;;;;;5.88;1.30;;;20.20;99.90;;;;;;5099012;28;20049;-73
2023/07/03 12:18:03;;;;;;;5.35;1.38;;;20.20;99.90;;;;;;5098821;28;20056;-73
2023/07/03 12:20:29;;;;;;;9.30;1.38;;;20.60;99.90;;;;;;5099255;28;20053;-72
2023/07/03 12:22:54;;;;;;;6.15;1.20;;;20.70;99.90;;;;;;5098775;28;20542;-72
2023/07/03 12:25:21;;;;;;;7.97;1.45;;;20.50;99.90;;;;;;5099061;28;20065;-73
2023/07/03 12:27:49;;;;;;;6.22;1.08;;;20.30;99.90;;;;;;5030526;28;20081;-73
2023/07/03 12:30:27;;;;;;;4.88;1.27;;;20.60;99.90;;;;;;5030605;28;20049;-73
2023/07/03 12:32:54;;;;;;;8.68;1.67;;;20.90;99.90;;;;;;5098950;28;20080;-72
2023/07/03 12:35:24;;;;;;;9.60;1.65;;;21.10;99.90;;;;;;5098699;28;20064;-73
2023/07/03 12:37:55;;;;;;;6.38;1.25;;;20.90;99.90;;;;;;5098888;28;20045;-73
2023/07/03 12:40:23;;;;;;;5.32;1.60;;;20.60;99.90;;;;;;5098703;28;20129;-73
2023/07/03 12:42:51;;;;;;;6.40;1.70;;;20.30;99.90;;;;;;5098802;28;20441;-73
2023/07/03 12:45:24;;;;;;;6.35;1.40;;;20.10;99.90;;;;;;5099064;28;20117;-74
2023/07/03 12:48:04;;;;;;;7.57;1.42;;;19.90;99.90;;;;;;5098271;28;20049;-74
2023/07/03 12:50:31;;;;;;;10.27;1.50;;;19.70;99.90;;;;;;5098748;28;20037;-73
2023/07/03 12:52:58;;;;;;;5.57;1.40;;;19.60;99.90;;;;;;5098606;28;20041;-74